sensor_id;sensor_type;location;lat;lon;timestamp;P1;durP1;ratioP1;P2;durP2;ratioP2
64061;SDS011;50308;47.438;-1.528;2023-09-19T00:00:37;3.78;;;1.13;;
64061;SDS011;50308;47.438;-1.528;2023-09-19T00:03:03;3.67;;;1.35;;
64061;SDS011;50308;47.438;-1.528;2023-09-19T00:05:33;4.32;;;1.17;;
64061;SDS011;50308;47.438;-1.528;2023-09-19T00:08:00;2.83;;;1.10;;
64061;SDS011;50308;47.438;-1.528;2023-09-19T00:10:30;4.40;;;1.00;;
64061;SDS011;50308;47.438;-1.528;2023-09-19T00:12:59;3.92;;;1.20;;
64061;SDS011;50308;47.438;-1.528;2023-09-19T00:15:30;2.38;;;0.82;;
64061;SDS011;50308;47.438;-1.528;2023-09-19T00:20:26;2.55;;;1.08;;
64061;SDS011;50308;47.438;-1.528;2023-09-19T00:22:54;4.30;;;1.33;;
64061;SDS011;50308;47.438;-1.528;2023-09-19T00:25:20;4.00;;;1.10;;
64061;SDS011;50308;47.438;-1.528;2023-09-19T00:27:46;3.40;;;0.98;;
64061;SDS011;50308;47.438;-1.528;2023-09-19T00:30:16;4.05;;;1.15;;
64061;SDS011;50308;47.438;-1.528;2023-09-19T00:32:44;3.22;;;1.10;;
64061;SDS011;50308;47.438;-1.528;2023-09-19T00:35:12;6.35;;;1.70;;
64061;SDS011;50308;47.438;-1.528;2023-09-19T00:37:42;2.97;;;1.00;;
64061;SDS011;50308;47.438;-1.528;2023-09-19T00:40:08;3.08;;;1.10;;
64061;SDS011;50308;47.438;-1.528;2023-09-19T00:43:20;3.03;;;0.90;;
64061;SDS011;50308;47.438;-1.528;2023-09-19T00:45:26;3.53;;;1.20;;
64061;SDS011;50308;47.438;-1.528;2023-09-19T00:47:53;2.17;;;0.90;;
64061;SDS011;50308;47.438;-1.528;2023-09-19T00:50:19;4.28;;;1.35;;
64061;SDS011;50308;47.438;-1.528;2023-09-19T00:52:47;6.05;;;1.20;;
64061;SDS011;50308;47.438;-1.528;2023-09-19T00:55:15;5.10;;;1.25;;
64061;SDS011;50308;47.438;-1.528;2023-09-19T00:57:43;2.55;;;1.05;;
64061;SDS011;50308;47.438;-1.528;2023-09-19T01:00:09;2.78;;;1.05;;
64061;SDS011;50308;47.438;-1.528;2023-09-19T01:02:40;3.25;;;0.90;;
64061;SDS011;50308;47.438;-1.528;2023-09-19T01:05:09;3.50;;;1.10;;
64061;SDS011;50308;47.438;-1.528;2023-09-19T01:07:36;2.35;;;1.00;;
64061;SDS011;50308;47.438;-1.528;2023-09-19T01:10:05;3.65;;;1.30;;
64061;SDS011;50308;47.438;-1.528;2023-09-19T01:15:23;4.85;;;1.23;;
64061;SDS011;50308;47.438;-1.528;2023-09-19T01:18:00;3.88;;;1.13;;
64061;SDS011;50308;47.438;-1.528;2023-09-19T01:28:39;3.53;;;1.08;;
64061;SDS011;50308;47.438;-1.528;2023-09-19T01:31:19;2.10;;;0.82;;
64061;SDS011;50308;47.438;-1.528;2023-09-19T01:36:34;2.90;;;0.98;;
64061;SDS011;50308;47.438;-1.528;2023-09-19T01:39:07;2.17;;;0.85;;
64061;SDS011;50308;47.438;-1.528;2023-09-19T01:44:51;2.97;;;1.15;;
64061;SDS011;50308;47.438;-1.528;2023-09-19T01:47:33;2.67;;;0.90;;
64061;SDS011;50308;47.438;-1.528;2023-09-19T01:50:12;2.85;;;0.95;;
64061;SDS011;50308;47.438;-1.528;2023-09-19T01:52:46;2.97;;;0.98;;
64061;SDS011;50308;47.438;-1.528;2023-09-19T01:55:18;3.35;;;1.02;;
64061;SDS011;50308;47.438;-1.528;2023-09-19T01:57:54;2.47;;;1.23;;
64061;SDS011;50308;47.438;-1.528;2023-09-19T02:00:32;2.65;;;1.10;;
64061;SDS011;50308;47.438;-1.528;2023-09-19T02:03:02;3.57;;;0.93;;
64061;SDS011;50308;47.438;-1.528;2023-09-19T02:05:28;2.42;;;0.95;;
64061;SDS011;50308;47.438;-1.528;2023-09-19T02:07:54;3.90;;;1.00;;
64061;SDS011;50308;47.438;-1.528;2023-09-19T02:10:21;2.03;;;0.90;;
64061;SDS011;50308;47.438;-1.528;2023-09-19T02:12:48;3.28;;;1.13;;
64061;SDS011;50308;47.438;-1.528;2023-09-19T02:15:14;2.38;;;1.00;;
64061;SDS011;50308;47.438;-1.528;2023-09-19T02:17:41;2.75;;;0.90;;
64061;SDS011;50308;47.438;-1.528;2023-09-19T02:20:08;3.20;;;1.05;;
64061;SDS011;50308;47.438;-1.528;2023-09-19T02:22:35;2.25;;;1.02;;
64061;SDS011;50308;47.438;-1.528;2023-09-19T02:25:02;2.53;;;0.80;;
64061;SDS011;50308;47.438;-1.528;2023-09-19T02:27:30;1.42;;;0.85;;
64061;SDS011;50308;47.438;-1.528;2023-09-19T02:29:56;4.22;;;1.08;;
64061;SDS011;50308;47.438;-1.528;2023-09-19T02:32:21;2.33;;;0.85;;
64061;SDS011;50308;47.438;-1.528;2023-09-19T02:34:48;4.38;;;1.45;;
64061;SDS011;50308;47.438;-1.528;2023-09-19T02:37:16;2.33;;;0.80;;
64061;SDS011;50308;47.438;-1.528;2023-09-19T02:39:43;2.97;;;0.95;;
64061;SDS011;50308;47.438;-1.528;2023-09-19T02:42:09;4.38;;;0.90;;
64061;SDS011;50308;47.438;-1.528;2023-09-19T02:44:35;3.45;;;1.20;;
64061;SDS011;50308;47.438;-1.528;2023-09-19T02:47:00;2.25;;;0.80;;
64061;SDS011;50308;47.438;-1.528;2023-09-19T02:49:26;2.25;;;1.08;;
64061;SDS011;50308;47.438;-1.528;2023-09-19T02:51:52;4.72;;;1.38;;
64061;SDS011;50308;47.438;-1.528;2023-09-19T02:54:18;3.15;;;1.20;;
64061;SDS011;50308;47.438;-1.528;2023-09-19T02:56:44;4.25;;;1.08;;
64061;SDS011;50308;47.438;-1.528;2023-09-19T02:59:10;2.83;;;0.88;;
64061;SDS011;50308;47.438;-1.528;2023-09-19T03:01:36;3.38;;;1.00;;
64061;SDS011;50308;47.438;-1.528;2023-09-19T03:04:03;2.85;;;0.90;;
64061;SDS011;50308;47.438;-1.528;2023-09-19T03:06:32;3.00;;;1.30;;
64061;SDS011;50308;47.438;-1.528;2023-09-19T03:08:58;2.88;;;1.05;;
64061;SDS011;50308;47.438;-1.528;2023-09-19T03:11:25;4.22;;;1.08;;
64061;SDS011;50308;47.438;-1.528;2023-09-19T03:13:53;2.80;;;1.13;;
64061;SDS011;50308;47.438;-1.528;2023-09-19T03:16:20;4.40;;;0.80;;
64061;SDS011;50308;47.438;-1.528;2023-09-19T03:18:50;2.10;;;1.05;;
64061;SDS011;50308;47.438;-1.528;2023-09-19T03:21:16;3.85;;;1.15;;
64061;SDS011;50308;47.438;-1.528;2023-09-19T03:23:42;1.98;;;0.90;;
64061;SDS011;50308;47.438;-1.528;2023-09-19T03:26:12;2.45;;;0.90;;
64061;SDS011;50308;47.438;-1.528;2023-09-19T03:28:41;3.00;;;1.50;;
64061;SDS011;50308;47.438;-1.528;2023-09-19T03:31:08;2.10;;;0.70;;
64061;SDS011;50308;47.438;-1.528;2023-09-19T03:33:35;2.72;;;0.80;;
64061;SDS011;50308;47.438;-1.528;2023-09-19T03:36:01;2.10;;;1.05;;
64061;SDS011;50308;47.438;-1.528;2023-09-19T03:38:30;5.03;;;0.90;;
64061;SDS011;50308;47.438;-1.528;2023-09-19T03:40:57;1.85;;;0.80;;
64061;SDS011;50308;47.438;-1.528;2023-09-19T03:43:23;2.85;;;1.00;;
64061;SDS011;50308;47.438;-1.528;2023-09-19T03:45:49;3.17;;;0.80;;
64061;SDS011;50308;47.438;-1.528;2023-09-19T03:48:15;3.25;;;1.00;;
64061;SDS011;50308;47.438;-1.528;2023-09-19T03:50:41;3.00;;;0.90;;
64061;SDS011;50308;47.438;-1.528;2023-09-19T03:53:09;5.70;;;1.40;;
64061;SDS011;50308;47.438;-1.528;2023-09-19T03:55:34;3.60;;;0.98;;
64061;SDS011;50308;47.438;-1.528;2023-09-19T03:58:01;1.98;;;0.98;;
64061;SDS011;50308;47.438;-1.528;2023-09-19T04:00:27;3.63;;;1.45;;
64061;SDS011;50308;47.438;-1.528;2023-09-19T04:02:54;2.75;;;1.10;;
64061;SDS011;50308;47.438;-1.528;2023-09-19T04:05:21;3.00;;;1.00;;
64061;SDS011;50308;47.438;-1.528;2023-09-19T04:07:47;2.15;;;0.90;;
64061;SDS011;50308;47.438;-1.528;2023-09-19T04:10:13;2.55;;;0.85;;
64061;SDS011;50308;47.438;-1.528;2023-09-19T04:12:39;1.92;;;0.73;;
64061;SDS011;50308;47.438;-1.528;2023-09-19T04:15:06;2.85;;;1.20;;
64061;SDS011;50308;47.438;-1.528;2023-09-19T04:17:32;2.85;;;0.93;;
64061;SDS011;50308;47.438;-1.528;2023-09-19T04:19:58;4.05;;;0.80;;
64061;SDS011;50308;47.438;-1.528;2023-09-19T04:22:24;5.47;;;1.10;;
64061;SDS011;50308;47.438;-1.528;2023-09-19T04:24:50;4.10;;;0.93;;
64061;SDS011;50308;47.438;-1.528;2023-09-19T04:27:15;2.30;;;0.93;;
64061;SDS011;50308;47.438;-1.528;2023-09-19T04:29:41;2.70;;;0.90;;
64061;SDS011;50308;47.438;-1.528;2023-09-19T04:32:07;3.83;;;1.02;;
64061;SDS011;50308;47.438;-1.528;2023-09-19T04:34:34;3.35;;;0.90;;
64061;SDS011;50308;47.438;-1.528;2023-09-19T04:37:00;4.05;;;1.20;;
64061;SDS011;50308;47.438;-1.528;2023-09-19T04:39:27;3.75;;;1.27;;
64061;SDS011;50308;47.438;-1.528;2023-09-19T04:41:53;2.92;;;1.30;;
64061;SDS011;50308;47.438;-1.528;2023-09-19T04:44:19;2.42;;;1.10;;
64061;SDS011;50308;47.438;-1.528;2023-09-19T04:46:45;4.00;;;1.25;;
64061;SDS011;50308;47.438;-1.528;2023-09-19T04:49:11;3.55;;;1.48;;
64061;SDS011;50308;47.438;-1.528;2023-09-19T04:51:38;4.57;;;1.30;;
64061;SDS011;50308;47.438;-1.528;2023-09-19T04:54:04;7.43;;;1.77;;
64061;SDS011;50308;47.438;-1.528;2023-09-19T04:56:30;4.47;;;1.40;;
64061;SDS011;50308;47.438;-1.528;2023-09-19T04:58:57;2.45;;;1.25;;
64061;SDS011;50308;47.438;-1.528;2023-09-19T05:01:26;3.47;;;1.30;;
64061;SDS011;50308;47.438;-1.528;2023-09-19T05:03:52;5.53;;;1.40;;
64061;SDS011;50308;47.438;-1.528;2023-09-19T05:06:21;4.13;;;1.20;;
64061;SDS011;50308;47.438;-1.528;2023-09-19T05:08:47;3.70;;;1.30;;
64061;SDS011;50308;47.438;-1.528;2023-09-19T05:11:17;3.65;;;1.40;;
64061;SDS011;50308;47.438;-1.528;2023-09-19T05:13:43;4.68;;;1.45;;
64061;SDS011;50308;47.438;-1.528;2023-09-19T05:16:09;3.80;;;1.63;;
64061;SDS011;50308;47.438;-1.528;2023-09-19T05:18:37;5.18;;;1.40;;
64061;SDS011;50308;47.438;-1.528;2023-09-19T05:21:03;3.67;;;1.35;;
64061;SDS011;50308;47.438;-1.528;2023-09-19T05:23:29;2.83;;;1.17;;
64061;SDS011;50308;47.438;-1.528;2023-09-19T05:25:56;4.85;;;1.40;;
64061;SDS011;50308;47.438;-1.528;2023-09-19T05:28:23;5.03;;;1.05;;
64061;SDS011;50308;47.438;-1.528;2023-09-19T05:30:49;3.25;;;1.05;;
64061;SDS011;50308;47.438;-1.528;2023-09-19T05:33:15;3.40;;;1.40;;
64061;SDS011;50308;47.438;-1.528;2023-09-19T05:35:40;4.45;;;1.17;;
64061;SDS011;50308;47.438;-1.528;2023-09-19T05:38:07;3.92;;;1.20;;
64061;SDS011;50308;47.438;-1.528;2023-09-19T05:40:37;2.45;;;0.90;;
64061;SDS011;50308;47.438;-1.528;2023-09-19T05:43:05;4.07;;;1.42;;
64061;SDS011;50308;47.438;-1.528;2023-09-19T05:45:31;4.60;;;1.00;;
64061;SDS011;50308;47.438;-1.528;2023-09-19T05:48:06;3.63;;;1.30;;
64061;SDS011;50308;47.438;-1.528;2023-09-19T05:50:40;3.97;;;1.30;;
64061;SDS011;50308;47.438;-1.528;2023-09-19T05:53:07;2.83;;;1.27;;
64061;SDS011;50308;47.438;-1.528;2023-09-19T05:55:33;3.88;;;1.40;;
64061;SDS011;50308;47.438;-1.528;2023-09-19T05:57:59;4.82;;;1.50;;
64061;SDS011;50308;47.438;-1.528;2023-09-19T06:00:25;2.78;;;1.00;;
64061;SDS011;50308;47.438;-1.528;2023-09-19T06:02:56;4.03;;;1.00;;
64061;SDS011;50308;47.438;-1.528;2023-09-19T06:05:23;3.05;;;1.13;;
64061;SDS011;50308;47.438;-1.528;2023-09-19T06:07:51;3.70;;;1.25;;
64061;SDS011;50308;47.438;-1.528;2023-09-19T06:10:18;3.63;;;1.27;;
64061;SDS011;50308;47.438;-1.528;2023-09-19T06:12:45;3.70;;;1.10;;
64061;SDS011;50308;47.438;-1.528;2023-09-19T06:15:12;5.78;;;2.08;;
64061;SDS011;50308;47.438;-1.528;2023-09-19T06:17:53;2.58;;;1.20;;
64061;SDS011;50308;47.438;-1.528;2023-09-19T06:20:24;3.38;;;1.35;;
64061;SDS011;50308;47.438;-1.528;2023-09-19T06:22:51;4.75;;;1.45;;
64061;SDS011;50308;47.438;-1.528;2023-09-19T06:25:17;34.38;;;4.35;;
64061;SDS011;50308;47.438;-1.528;2023-09-19T06:27:47;6.32;;;1.60;;
64061;SDS011;50308;47.438;-1.528;2023-09-19T06:30:14;6.97;;;1.88;;
64061;SDS011;50308;47.438;-1.528;2023-09-19T06:32:40;8.57;;;1.83;;
64061;SDS011;50308;47.438;-1.528;2023-09-19T06:35:13;3.72;;;1.30;;
64061;SDS011;50308;47.438;-1.528;2023-09-19T06:37:41;6.25;;;1.50;;
64061;SDS011;50308;47.438;-1.528;2023-09-19T06:40:11;4.07;;;1.42;;
64061;SDS011;50308;47.438;-1.528;2023-09-19T06:45:10;6.90;;;2.13;;
64061;SDS011;50308;47.438;-1.528;2023-09-19T06:47:47;5.60;;;1.98;;
64061;SDS011;50308;47.438;-1.528;2023-09-19T06:50:20;3.72;;;1.73;;
64061;SDS011;50308;47.438;-1.528;2023-09-19T06:52:50;4.32;;;1.38;;
64061;SDS011;50308;47.438;-1.528;2023-09-19T06:55:19;5.97;;;1.90;;
64061;SDS011;50308;47.438;-1.528;2023-09-19T06:57:48;5.20;;;1.70;;
64061;SDS011;50308;47.438;-1.528;2023-09-19T07:00:14;6.85;;;1.50;;
64061;SDS011;50308;47.438;-1.528;2023-09-19T07:02:41;2.83;;;1.27;;
64061;SDS011;50308;47.438;-1.528;2023-09-19T07:05:07;5.25;;;1.75;;
64061;SDS011;50308;47.438;-1.528;2023-09-19T07:07:33;4.65;;;1.88;;
64061;SDS011;50308;47.438;-1.528;2023-09-19T07:10:02;4.57;;;1.67;;
64061;SDS011;50308;47.438;-1.528;2023-09-19T07:12:30;5.03;;;1.88;;
64061;SDS011;50308;47.438;-1.528;2023-09-19T07:14:57;2.55;;;1.70;;
64061;SDS011;50308;47.438;-1.528;2023-09-19T07:17:23;4.38;;;1.65;;
64061;SDS011;50308;47.438;-1.528;2023-09-19T07:19:49;4.63;;;1.85;;
64061;SDS011;50308;47.438;-1.528;2023-09-19T07:22:15;3.85;;;1.90;;
64061;SDS011;50308;47.438;-1.528;2023-09-19T07:24:41;3.78;;;1.73;;
64061;SDS011;50308;47.438;-1.528;2023-09-19T07:27:07;3.55;;;1.67;;
64061;SDS011;50308;47.438;-1.528;2023-09-19T07:29:33;4.45;;;1.73;;
64061;SDS011;50308;47.438;-1.528;2023-09-19T07:31:59;6.22;;;1.88;;
64061;SDS011;50308;47.438;-1.528;2023-09-19T07:34:25;6.47;;;2.15;;
64061;SDS011;50308;47.438;-1.528;2023-09-19T07:36:50;6.53;;;2.30;;
64061;SDS011;50308;47.438;-1.528;2023-09-19T07:39:16;4.85;;;2.13;;
64061;SDS011;50308;47.438;-1.528;2023-09-19T07:41:42;3.70;;;2.08;;
64061;SDS011;50308;47.438;-1.528;2023-09-19T07:44:08;4.10;;;2.00;;
64061;SDS011;50308;47.438;-1.528;2023-09-19T07:46:35;4.65;;;1.95;;
64061;SDS011;50308;47.438;-1.528;2023-09-19T07:49:01;4.93;;;1.90;;
64061;SDS011;50308;47.438;-1.528;2023-09-19T07:51:26;6.13;;;2.30;;
64061;SDS011;50308;47.438;-1.528;2023-09-19T07:53:52;5.50;;;2.00;;
64061;SDS011;50308;47.438;-1.528;2023-09-19T07:56:20;3.33;;;1.80;;
64061;SDS011;50308;47.438;-1.528;2023-09-19T07:58:46;5.65;;;2.35;;
64061;SDS011;50308;47.438;-1.528;2023-09-19T08:01:11;6.68;;;1.80;;
64061;SDS011;50308;47.438;-1.528;2023-09-19T08:03:38;7.15;;;2.20;;
64061;SDS011;50308;47.438;-1.528;2023-09-19T08:06:06;5.57;;;1.90;;
64061;SDS011;50308;47.438;-1.528;2023-09-19T08:08:32;5.55;;;2.30;;
64061;SDS011;50308;47.438;-1.528;2023-09-19T08:11:05;6.05;;;2.13;;
64061;SDS011;50308;47.438;-1.528;2023-09-19T08:13:36;4.30;;;2.30;;
64061;SDS011;50308;47.438;-1.528;2023-09-19T08:16:03;5.00;;;2.10;;
64061;SDS011;50308;47.438;-1.528;2023-09-19T08:18:30;4.72;;;1.60;;
64061;SDS011;50308;47.438;-1.528;2023-09-19T08:20:55;5.85;;;1.88;;
64061;SDS011;50308;47.438;-1.528;2023-09-19T08:23:23;5.75;;;1.65;;
64061;SDS011;50308;47.438;-1.528;2023-09-19T08:25:49;4.47;;;1.58;;
64061;SDS011;50308;47.438;-1.528;2023-09-19T08:28:15;5.30;;;1.73;;
64061;SDS011;50308;47.438;-1.528;2023-09-19T08:30:45;10.70;;;1.70;;
64061;SDS011;50308;47.438;-1.528;2023-09-19T08:33:11;4.60;;;1.33;;
64061;SDS011;50308;47.438;-1.528;2023-09-19T08:35:37;6.28;;;1.67;;
64061;SDS011;50308;47.438;-1.528;2023-09-19T08:38:04;3.92;;;1.27;;
64061;SDS011;50308;47.438;-1.528;2023-09-19T08:40:31;4.25;;;1.45;;
64061;SDS011;50308;47.438;-1.528;2023-09-19T08:42:58;4.65;;;1.67;;
64061;SDS011;50308;47.438;-1.528;2023-09-19T08:45:26;5.32;;;1.48;;
64061;SDS011;50308;47.438;-1.528;2023-09-19T08:50:37;7.43;;;1.75;;
64061;SDS011;50308;47.438;-1.528;2023-09-19T08:53:10;5.28;;;1.50;;
64061;SDS011;50308;47.438;-1.528;2023-09-19T08:55:40;4.30;;;1.75;;
64061;SDS011;50308;47.438;-1.528;2023-09-19T08:58:09;6.20;;;1.67;;
64061;SDS011;50308;47.438;-1.528;2023-09-19T09:00:36;7.43;;;1.70;;
64061;SDS011;50308;47.438;-1.528;2023-09-19T09:03:02;5.75;;;1.65;;
64061;SDS011;50308;47.438;-1.528;2023-09-19T09:05:31;7.25;;;1.77;;
64061;SDS011;50308;47.438;-1.528;2023-09-19T09:07:59;6.25;;;1.40;;
64061;SDS011;50308;47.438;-1.528;2023-09-19T09:10:27;5.07;;;1.27;;
64061;SDS011;50308;47.438;-1.528;2023-09-19T09:12:53;4.32;;;1.73;;
64061;SDS011;50308;47.438;-1.528;2023-09-19T09:15:22;4.63;;;1.65;;
64061;SDS011;50308;47.438;-1.528;2023-09-19T09:17:49;6.70;;;1.77;;
64061;SDS011;50308;47.438;-1.528;2023-09-19T09:20:19;4.65;;;1.52;;
64061;SDS011;50308;47.438;-1.528;2023-09-19T09:22:51;8.63;;;1.80;;
64061;SDS011;50308;47.438;-1.528;2023-09-19T09:25:18;9.50;;;1.52;;
64061;SDS011;50308;47.438;-1.528;2023-09-19T09:27:46;4.22;;;1.38;;
64061;SDS011;50308;47.438;-1.528;2023-09-19T09:33:09;3.45;;;1.20;;
64061;SDS011;50308;47.438;-1.528;2023-09-19T09:35:37;7.60;;;1.50;;
64061;SDS011;50308;47.438;-1.528;2023-09-19T09:38:12;6.07;;;1.42;;
64061;SDS011;50308;47.438;-1.528;2023-09-19T09:40:48;3.35;;;1.70;;
64061;SDS011;50308;47.438;-1.528;2023-09-19T09:43:47;6.78;;;1.73;;
64061;SDS011;50308;47.438;-1.528;2023-09-19T09:46:14;6.80;;;1.85;;
64061;SDS011;50308;47.438;-1.528;2023-09-19T09:51:58;5.57;;;1.55;;
64061;SDS011;50308;47.438;-1.528;2023-09-19T09:54:59;5.18;;;2.05;;
64061;SDS011;50308;47.438;-1.528;2023-09-19T09:57:26;4.03;;;1.70;;
64061;SDS011;50308;47.438;-1.528;2023-09-19T09:59:53;6.72;;;2.28;;
64061;SDS011;50308;47.438;-1.528;2023-09-19T10:02:40;3.92;;;1.52;;
64061;SDS011;50308;47.438;-1.528;2023-09-19T10:05:26;6.60;;;1.60;;
64061;SDS011;50308;47.438;-1.528;2023-09-19T10:07:55;5.22;;;1.77;;
64061;SDS011;50308;47.438;-1.528;2023-09-19T10:10:32;10.55;;;2.15;;
64061;SDS011;50308;47.438;-1.528;2023-09-19T10:13:12;5.10;;;2.08;;
64061;SDS011;50308;47.438;-1.528;2023-09-19T10:15:42;5.80;;;1.90;;
64061;SDS011;50308;47.438;-1.528;2023-09-19T10:18:16;6.65;;;1.92;;
64061;SDS011;50308;47.438;-1.528;2023-09-19T10:20:45;8.32;;;2.42;;
64061;SDS011;50308;47.438;-1.528;2023-09-19T10:23:13;11.65;;;1.98;;
64061;SDS011;50308;47.438;-1.528;2023-09-19T10:25:41;8.02;;;2.40;;
64061;SDS011;50308;47.438;-1.528;2023-09-19T10:28:09;7.55;;;2.22;;
64061;SDS011;50308;47.438;-1.528;2023-09-19T10:30:37;11.73;;;2.47;;
64061;SDS011;50308;47.438;-1.528;2023-09-19T10:33:09;9.15;;;2.75;;
64061;SDS011;50308;47.438;-1.528;2023-09-19T10:35:36;5.65;;;2.03;;
64061;SDS011;50308;47.438;-1.528;2023-09-19T10:38:05;8.02;;;2.65;;
64061;SDS011;50308;47.438;-1.528;2023-09-19T10:40:32;5.90;;;1.90;;
64061;SDS011;50308;47.438;-1.528;2023-09-19T10:43:04;8.13;;;2.58;;
64061;SDS011;50308;47.438;-1.528;2023-09-19T10:45:31;7.07;;;2.38;;
64061;SDS011;50308;47.438;-1.528;2023-09-19T10:47:59;10.32;;;2.33;;
64061;SDS011;50308;47.438;-1.528;2023-09-19T10:50:25;12.27;;;2.67;;
64061;SDS011;50308;47.438;-1.528;2023-09-19T10:52:56;9.27;;;2.60;;
64061;SDS011;50308;47.438;-1.528;2023-09-19T10:55:29;9.40;;;2.17;;
64061;SDS011;50308;47.438;-1.528;2023-09-19T10:57:56;4.25;;;1.83;;
64061;SDS011;50308;47.438;-1.528;2023-09-19T11:00:52;6.78;;;1.85;;
64061;SDS011;50308;47.438;-1.528;2023-09-19T11:03:20;6.65;;;1.70;;
64061;SDS011;50308;47.438;-1.528;2023-09-19T11:30:30;5.80;;;1.77;;
64061;SDS011;50308;47.438;-1.528;2023-09-19T11:43:49;9.93;;;2.58;;
64061;SDS011;50308;47.438;-1.528;2023-09-19T11:48:47;4.97;;;1.63;;
64061;SDS011;50308;47.438;-1.528;2023-09-19T11:51:15;6.10;;;1.67;;
64061;SDS011;50308;47.438;-1.528;2023-09-19T11:53:49;5.35;;;1.85;;
64061;SDS011;50308;47.438;-1.528;2023-09-19T11:56:16;11.85;;;1.88;;
64061;SDS011;50308;47.438;-1.528;2023-09-19T11:58:45;4.07;;;1.88;;
64061;SDS011;50308;47.438;-1.528;2023-09-19T12:01:21;4.55;;;2.15;;
64061;SDS011;50308;47.438;-1.528;2023-09-19T12:03:57;6.55;;;1.92;;
64061;SDS011;50308;47.438;-1.528;2023-09-19T12:06:28;4.10;;;1.77;;
64061;SDS011;50308;47.438;-1.528;2023-09-19T12:08:55;6.50;;;1.85;;
64061;SDS011;50308;47.438;-1.528;2023-09-19T12:11:28;7.57;;;1.60;;
64061;SDS011;50308;47.438;-1.528;2023-09-19T12:13:58;5.45;;;2.20;;
64061;SDS011;50308;47.438;-1.528;2023-09-19T12:16:26;6.43;;;1.70;;
64061;SDS011;50308;47.438;-1.528;2023-09-19T12:18:55;6.25;;;1.92;;
64061;SDS011;50308;47.438;-1.528;2023-09-19T12:24:13;5.10;;;1.75;;
64061;SDS011;50308;47.438;-1.528;2023-09-19T12:26:44;8.75;;;2.03;;
64061;SDS011;50308;47.438;-1.528;2023-09-19T12:29:17;7.35;;;1.90;;
64061;SDS011;50308;47.438;-1.528;2023-09-19T12:31:50;6.13;;;1.98;;
64061;SDS011;50308;47.438;-1.528;2023-09-19T12:34:19;10.07;;;2.45;;
64061;SDS011;50308;47.438;-1.528;2023-09-19T12:36:46;6.15;;;2.40;;
64061;SDS011;50308;47.438;-1.528;2023-09-19T12:39:21;6.90;;;1.83;;
64061;SDS011;50308;47.438;-1.528;2023-09-19T12:41:49;9.23;;;2.88;;
64061;SDS011;50308;47.438;-1.528;2023-09-19T12:44:16;6.60;;;1.92;;
64061;SDS011;50308;47.438;-1.528;2023-09-19T12:46:43;9.30;;;2.00;;
64061;SDS011;50308;47.438;-1.528;2023-09-19T12:49:17;5.88;;;1.90;;
64061;SDS011;50308;47.438;-1.528;2023-09-19T12:51:43;7.13;;;1.73;;
64061;SDS011;50308;47.438;-1.528;2023-09-19T12:54:11;7.32;;;1.85;;
64061;SDS011;50308;47.438;-1.528;2023-09-19T12:56:39;7.13;;;1.80;;
64061;SDS011;50308;47.438;-1.528;2023-09-19T12:59:11;6.53;;;1.67;;
64061;SDS011;50308;47.438;-1.528;2023-09-19T13:01:39;7.88;;;2.40;;
64061;SDS011;50308;47.438;-1.528;2023-09-19T13:04:18;3.75;;;1.60;;
64061;SDS011;50308;47.438;-1.528;2023-09-19T13:06:47;7.10;;;2.13;;
64061;SDS011;50308;47.438;-1.528;2023-09-19T13:09:15;5.72;;;1.80;;
64061;SDS011;50308;47.438;-1.528;2023-09-19T13:11:41;4.32;;;1.45;;
64061;SDS011;50308;47.438;-1.528;2023-09-19T13:17:02;5.45;;;1.70;;
64061;SDS011;50308;47.438;-1.528;2023-09-19T13:19:39;5.43;;;1.38;;
64061;SDS011;50308;47.438;-1.528;2023-09-19T13:25:19;3.83;;;1.40;;
64061;SDS011;50308;47.438;-1.528;2023-09-19T13:30:17;5.85;;;1.60;;
64061;SDS011;50308;47.438;-1.528;2023-09-19T13:32:43;5.55;;;1.88;;
64061;SDS011;50308;47.438;-1.528;2023-09-19T13:35:09;5.35;;;1.50;;
64061;SDS011;50308;47.438;-1.528;2023-09-19T13:37:38;4.80;;;1.10;;
64061;SDS011;50308;47.438;-1.528;2023-09-19T13:40:13;3.75;;;1.23;;
64061;SDS011;50308;47.438;-1.528;2023-09-19T13:42:40;5.47;;;1.27;;
64061;SDS011;50308;47.438;-1.528;2023-09-19T13:45:06;4.70;;;1.75;;
64061;SDS011;50308;47.438;-1.528;2023-09-19T13:47:33;5.03;;;1.58;;
64061;SDS011;50308;47.438;-1.528;2023-09-19T13:49:59;5.50;;;1.50;;
64061;SDS011;50308;47.438;-1.528;2023-09-19T13:52:27;6.82;;;1.63;;
64061;SDS011;50308;47.438;-1.528;2023-09-19T13:54:55;6.15;;;1.58;;
64061;SDS011;50308;47.438;-1.528;2023-09-19T13:57:25;6.07;;;2.00;;
64061;SDS011;50308;47.438;-1.528;2023-09-19T13:59:51;6.90;;;2.10;;
64061;SDS011;50308;47.438;-1.528;2023-09-19T14:02:17;5.47;;;1.80;;
64061;SDS011;50308;47.438;-1.528;2023-09-19T14:04:43;5.43;;;1.90;;
64061;SDS011;50308;47.438;-1.528;2023-09-19T14:07:09;6.57;;;1.92;;
64061;SDS011;50308;47.438;-1.528;2023-09-19T14:09:36;6.63;;;1.98;;
64061;SDS011;50308;47.438;-1.528;2023-09-19T14:12:02;6.78;;;2.35;;
64061;SDS011;50308;47.438;-1.528;2023-09-19T14:14:28;6.45;;;2.33;;
64061;SDS011;50308;47.438;-1.528;2023-09-19T14:16:53;3.35;;;1.60;;
64061;SDS011;50308;47.438;-1.528;2023-09-19T14:19:20;6.05;;;2.25;;
64061;SDS011;50308;47.438;-1.528;2023-09-19T14:21:45;6.38;;;1.88;;
64061;SDS011;50308;47.438;-1.528;2023-09-19T14:24:16;7.55;;;2.22;;
64061;SDS011;50308;47.438;-1.528;2023-09-19T14:26:42;7.15;;;2.40;;
64061;SDS011;50308;47.438;-1.528;2023-09-19T14:29:08;5.07;;;1.90;;
64061;SDS011;50308;47.438;-1.528;2023-09-19T14:31:36;5.35;;;2.20;;
64061;SDS011;50308;47.438;-1.528;2023-09-19T14:34:05;4.88;;;2.20;;
64061;SDS011;50308;47.438;-1.528;2023-09-19T14:36:31;5.47;;;2.00;;
64061;SDS011;50308;47.438;-1.528;2023-09-19T14:38:58;4.82;;;2.10;;
64061;SDS011;50308;47.438;-1.528;2023-09-19T14:41:24;6.75;;;2.55;;
64061;SDS011;50308;47.438;-1.528;2023-09-19T14:43:53;5.55;;;2.20;;
64061;SDS011;50308;47.438;-1.528;2023-09-19T14:46:20;6.70;;;2.00;;
64061;SDS011;50308;47.438;-1.528;2023-09-19T14:48:46;7.18;;;2.70;;
64061;SDS011;50308;47.438;-1.528;2023-09-19T14:51:12;8.57;;;2.10;;
64061;SDS011;50308;47.438;-1.528;2023-09-19T14:53:39;8.93;;;2.53;;
64061;SDS011;50308;47.438;-1.528;2023-09-19T14:56:07;7.68;;;2.25;;
64061;SDS011;50308;47.438;-1.528;2023-09-19T14:58:33;8.68;;;2.33;;
64061;SDS011;50308;47.438;-1.528;2023-09-19T15:01:06;6.32;;;2.50;;
64061;SDS011;50308;47.438;-1.528;2023-09-19T15:03:35;6.13;;;2.28;;
64061;SDS011;50308;47.438;-1.528;2023-09-19T15:06:02;11.05;;;3.88;;
64061;SDS011;50308;47.438;-1.528;2023-09-19T15:08:35;7.53;;;3.03;;
64061;SDS011;50308;47.438;-1.528;2023-09-19T15:11:06;8.38;;;2.72;;
64061;SDS011;50308;47.438;-1.528;2023-09-19T15:13:32;4.70;;;1.92;;
64061;SDS011;50308;47.438;-1.528;2023-09-19T15:16:02;4.30;;;2.00;;
64061;SDS011;50308;47.438;-1.528;2023-09-19T15:18:29;6.35;;;2.30;;
64061;SDS011;50308;47.438;-1.528;2023-09-19T15:20:56;7.60;;;2.35;;
64061;SDS011;50308;47.438;-1.528;2023-09-19T15:23:25;4.35;;;2.28;;
64061;SDS011;50308;47.438;-1.528;2023-09-19T15:25:51;4.55;;;1.98;;
64061;SDS011;50308;47.438;-1.528;2023-09-19T15:28:16;5.97;;;2.58;;
64061;SDS011;50308;47.438;-1.528;2023-09-19T15:30:42;7.38;;;2.65;;
64061;SDS011;50308;47.438;-1.528;2023-09-19T15:33:08;7.97;;;2.22;;
64061;SDS011;50308;47.438;-1.528;2023-09-19T15:35:34;5.00;;;2.42;;
64061;SDS011;50308;47.438;-1.528;2023-09-19T15:38:02;4.80;;;2.10;;
64061;SDS011;50308;47.438;-1.528;2023-09-19T15:40:28;7.22;;;2.47;;
64061;SDS011;50308;47.438;-1.528;2023-09-19T15:42:54;7.78;;;2.05;;
64061;SDS011;50308;47.438;-1.528;2023-09-19T15:45:21;10.52;;;2.47;;
64061;SDS011;50308;47.438;-1.528;2023-09-19T15:47:48;8.38;;;2.50;;
64061;SDS011;50308;47.438;-1.528;2023-09-19T15:50:13;9.18;;;2.75;;
64061;SDS011;50308;47.438;-1.528;2023-09-19T15:52:40;8.05;;;2.13;;
64061;SDS011;50308;47.438;-1.528;2023-09-19T15:55:06;5.57;;;2.40;;
64061;SDS011;50308;47.438;-1.528;2023-09-19T15:57:33;7.28;;;2.45;;
64061;SDS011;50308;47.438;-1.528;2023-09-19T16:00:01;6.70;;;2.28;;